首页
METAR-TAF:

METAR-TAF

机场 :

安科纳, 意大利

纬度: 43-37N, 经度: 013-22E, 海拔: 12米

当前天气观测

该预报发布于29分钟前的03:50 UTC
风速5节,风向
温度 2°C
湿度 75%
气压 1022 hPa
能见度10公里或以上

METAR: LIPY 210350Z AUTO 19005KT 9999 NCD 02/M02 Q1022

时间: 05:19 (04:19 UTC)

预报

该预报发布于5小时和19分钟前的23:00 UTC
预报有效从21日的 00点(UTC)到 21日的 24点(UTC)
风速5节,风向多变
能见度10公里或以上
1500米以下无云,无积雨云

TAF: LIPY 202300Z 2100/2124 VRB05KT CAVOK

超过4000个机场的气象观测和天气预报(METAR&TAF报告)。

可查询的气象台以黄色和红色小点在地图上表示。

将鼠标移到小点上方,可查看气象台名称。

然后点击查看天气观测和预报。

如需切换地图:点击带黑十字的绿色按钮放大地图;点击带横线的绿色按钮缩小地图;或者点击绿色箭头查看邻近地区的地图。


METAR-TAF: